sensor_id;sensor_type;location;lat;lon;timestamp;pressure;altitude;pressure_sealevel;temperature;humidity
58223;BME280;44020;50.890;15.796;2023-09-12T00:01:30;97429.77;;;16.23;85.89
58223;BME280;44020;50.890;15.796;2023-09-12T00:04:00;97432.48;;;16.21;86.16
58223;BME280;44020;50.890;15.796;2023-09-12T00:06:27;97435.67;;;16.20;86.59
58223;BME280;44020;50.890;15.796;2023-09-12T00:08:54;97434.93;;;16.20;86.91
58223;BME280;44020;50.890;15.796;2023-09-12T00:11:21;97432.22;;;16.20;87.23
58223;BME280;44020;50.890;15.796;2023-09-12T00:13:52;97433.33;;;16.17;87.52
58223;BME280;44020;50.890;15.796;2023-09-12T00:16:19;97436.59;;;16.13;87.80
58223;BME280;44020;50.890;15.796;2023-09-12T00:18:46;97434.79;;;16.11;88.37
58223;BME280;44020;50.890;15.796;2023-09-12T00:21:14;97431.56;;;16.11;88.68
58223;BME280;44020;50.890;15.796;2023-09-12T00:23:41;97429.15;;;16.11;88.88
58223;BME280;44020;50.890;15.796;2023-09-12T00:26:08;97426.48;;;16.10;88.52
58223;BME280;44020;50.890;15.796;2023-09-12T00:28:36;97427.97;;;16.05;88.23
58223;BME280;44020;50.890;15.796;2023-09-12T00:31:05;97425.20;;;16.02;88.20
58223;BME280;44020;50.890;15.796;2023-09-12T00:33:32;97423.44;;;15.98;88.07
58223;BME280;44020;50.890;15.796;2023-09-12T00:36:00;97424.20;;;15.97;88.21
58223;BME280;44020;50.890;15.796;2023-09-12T00:38:27;97422.00;;;15.98;88.39
58223;BME280;44020;50.890;15.796;2023-09-12T00:40:54;97421.61;;;15.96;88.27
58223;BME280;44020;50.890;15.796;2023-09-12T00:43:22;97419.77;;;15.92;88.02
58223;BME280;44020;50.890;15.796;2023-09-12T00:45:49;97421.31;;;15.87;88.02
58223;BME280;44020;50.890;15.796;2023-09-12T00:48:17;97423.36;;;15.80;87.94
58223;BME280;44020;50.890;15.796;2023-09-12T00:50:47;97419.95;;;15.77;88.21
58223;BME280;44020;50.890;15.796;2023-09-12T00:53:16;97420.59;;;15.77;88.36
58223;BME280;44020;50.890;15.796;2023-09-12T00:55:48;97416.04;;;15.78;88.28
58223;BME280;44020;50.890;15.796;2023-09-12T00:58:17;97419.11;;;15.73;88.16
58223;BME280;44020;50.890;15.796;2023-09-12T01:00:48;97419.05;;;15.67;88.42
58223;BME280;44020;50.890;15.796;2023-09-12T01:03:16;97417.39;;;15.66;88.46
58223;BME280;44020;50.890;15.796;2023-09-12T01:05:43;97420.48;;;15.61;88.55
58223;BME280;44020;50.890;15.796;2023-09-12T01:08:11;97423.25;;;15.59;88.71
58223;BME280;44020;50.890;15.796;2023-09-12T01:10:39;97421.69;;;15.56;88.97
58223;BME280;44020;50.890;15.796;2023-09-12T01:13:07;97417.86;;;15.57;89.20
58223;BME280;44020;50.890;15.796;2023-09-12T01:15:34;97417.86;;;15.57;89.37
58223;BME280;44020;50.890;15.796;2023-09-12T01:18:01;97415.45;;;15.56;89.32
58223;BME280;44020;50.890;15.796;2023-09-12T01:20:32;97415.15;;;15.55;89.50
58223;BME280;44020;50.890;15.796;2023-09-12T01:26:17;97412.77;;;15.50;89.94
58223;BME280;44020;50.890;15.796;2023-09-12T01:28:54;97412.88;;;15.51;90.25
58223;BME280;44020;50.890;15.796;2023-09-12T01:31:27;97414.63;;;15.51;90.21
58223;BME280;44020;50.890;15.796;2023-09-12T01:33:56;97412.25;;;15.50;90.30
58223;BME280;44020;50.890;15.796;2023-09-12T01:36:24;97408.05;;;15.49;90.21
58223;BME280;44020;50.890;15.796;2023-09-12T01:38:51;97411.80;;;15.46;90.17
58223;BME280;44020;50.890;15.796;2023-09-12T01:41:19;97413.58;;;15.42;90.30
58223;BME280;44020;50.890;15.796;2023-09-12T01:43:50;97410.80;;;15.39;90.30
58223;BME280;44020;50.890;15.796;2023-09-12T01:46:20;97413.56;;;15.38;90.38
58223;BME280;44020;50.890;15.796;2023-09-12T01:48:57;97413.94;;;15.38;90.39
58223;BME280;44020;50.890;15.796;2023-09-12T01:51:36;97412.29;;;15.36;90.35
58223;BME280;44020;50.890;15.796;2023-09-12T01:54:04;97415.92;;;15.32;90.46
58223;BME280;44020;50.890;15.796;2023-09-12T01:56:43;97418.33;;;15.31;90.38
58223;BME280;44020;50.890;15.796;2023-09-12T01:59:12;97418.23;;;15.27;90.26
58223;BME280;44020;50.890;15.796;2023-09-12T02:01:39;97419.45;;;15.24;90.22
58223;BME280;44020;50.890;15.796;2023-09-12T02:04:10;97416.86;;;15.18;90.25
58223;BME280;44020;50.890;15.796;2023-09-12T02:06:37;97420.23;;;15.17;90.49
58223;BME280;44020;50.890;15.796;2023-09-12T02:09:05;97419.79;;;15.16;90.66
58223;BME280;44020;50.890;15.796;2023-09-12T02:11:32;97420.85;;;15.14;90.72
58223;BME280;44020;50.890;15.796;2023-09-12T02:13:59;97420.66;;;15.14;90.88
58223;BME280;44020;50.890;15.796;2023-09-12T02:16:26;97419.54;;;15.15;90.77
58223;BME280;44020;50.890;15.796;2023-09-12T02:18:53;97423.13;;;15.12;90.80
58223;BME280;44020;50.890;15.796;2023-09-12T02:21:20;97420.62;;;15.13;90.90
58223;BME280;44020;50.890;15.796;2023-09-12T02:23:48;97421.66;;;15.11;90.68
58223;BME280;44020;50.890;15.796;2023-09-12T02:26:15;97421.42;;;15.06;90.68
58223;BME280;44020;50.890;15.796;2023-09-12T02:28:42;97423.04;;;15.04;90.83
58223;BME280;44020;50.890;15.796;2023-09-12T02:31:12;97425.92;;;15.00;90.89
58223;BME280;44020;50.890;15.796;2023-09-12T02:33:40;97424.05;;;14.97;91.23
58223;BME280;44020;50.890;15.796;2023-09-12T02:36:07;97424.79;;;14.97;91.32
58223;BME280;44020;50.890;15.796;2023-09-12T02:38:34;97426.12;;;14.94;91.07
58223;BME280;44020;50.890;15.796;2023-09-12T02:41:02;97425.52;;;14.91;91.01
58223;BME280;44020;50.890;15.796;2023-09-12T02:43:29;97423.91;;;14.89;91.05
58223;BME280;44020;50.890;15.796;2023-09-12T02:45:57;97419.73;;;14.85;91.00
58223;BME280;44020;50.890;15.796;2023-09-12T02:48:24;97418.48;;;14.82;91.09
58223;BME280;44020;50.890;15.796;2023-09-12T02:50:51;97416.70;;;14.82;91.27
58223;BME280;44020;50.890;15.796;2023-09-12T02:53:18;97417.94;;;14.82;91.30
58223;BME280;44020;50.890;15.796;2023-09-12T02:55:46;97420.63;;;14.77;91.15
58223;BME280;44020;50.890;15.796;2023-09-12T02:58:13;97417.79;;;14.76;91.05
58223;BME280;44020;50.890;15.796;2023-09-12T03:00:40;97417.66;;;14.73;91.12
58223;BME280;44020;50.890;15.796;2023-09-12T03:03:08;97418.63;;;14.70;91.31
58223;BME280;44020;50.890;15.796;2023-09-12T03:05:36;97417.16;;;14.67;91.48
58223;BME280;44020;50.890;15.796;2023-09-12T03:08:04;97415.58;;;14.65;91.92
58223;BME280;44020;50.890;15.796;2023-09-12T03:10:31;97416.44;;;14.63;92.18
58223;BME280;44020;50.890;15.796;2023-09-12T03:12:58;97416.02;;;14.62;92.24
58223;BME280;44020;50.890;15.796;2023-09-12T03:15:25;97414.02;;;14.58;92.06
58223;BME280;44020;50.890;15.796;2023-09-12T03:17:52;97414.77;;;14.53;92.16
58223;BME280;44020;50.890;15.796;2023-09-12T03:20:20;97414.84;;;14.51;92.14
58223;BME280;44020;50.890;15.796;2023-09-12T03:22:47;97409.67;;;14.49;92.11
58223;BME280;44020;50.890;15.796;2023-09-12T03:25:15;97411.47;;;14.47;92.32
58223;BME280;44020;50.890;15.796;2023-09-12T03:27:42;97409.88;;;14.48;92.37
58223;BME280;44020;50.890;15.796;2023-09-12T03:30:10;97407.36;;;14.46;92.13
58223;BME280;44020;50.890;15.796;2023-09-12T03:32:38;97409.46;;;14.43;91.96
58223;BME280;44020;50.890;15.796;2023-09-12T03:35:06;97407.96;;;14.38;92.12
58223;BME280;44020;50.890;15.796;2023-09-12T03:37:33;97405.16;;;14.35;92.36
58223;BME280;44020;50.890;15.796;2023-09-12T03:40:01;97402.80;;;14.34;92.60
58223;BME280;44020;50.890;15.796;2023-09-12T03:42:28;97399.63;;;14.31;92.40
58223;BME280;44020;50.890;15.796;2023-09-12T03:44:56;97402.92;;;14.28;92.46
58223;BME280;44020;50.890;15.796;2023-09-12T03:47:23;97407.79;;;14.26;92.73
58223;BME280;44020;50.890;15.796;2023-09-12T03:49:50;97402.64;;;14.27;93.11
58223;BME280;44020;50.890;15.796;2023-09-12T03:52:17;97402.34;;;14.27;93.28
58223;BME280;44020;50.890;15.796;2023-09-12T03:54:45;97406.66;;;14.27;93.44
58223;BME280;44020;50.890;15.796;2023-09-12T03:57:12;97407.75;;;14.28;93.60
58223;BME280;44020;50.890;15.796;2023-09-12T03:59:40;97407.25;;;14.28;93.45
58223;BME280;44020;50.890;15.796;2023-09-12T04:02:08;97407.66;;;14.25;93.25
58223;BME280;44020;50.890;15.796;2023-09-12T04:04:35;97408.73;;;14.23;93.27
58223;BME280;44020;50.890;15.796;2023-09-12T04:07:04;97410.48;;;14.22;93.28
58223;BME280;44020;50.890;15.796;2023-09-12T04:09:31;97411.52;;;14.22;93.31
58223;BME280;44020;50.890;15.796;2023-09-12T04:11:59;97409.06;;;14.22;93.26
58223;BME280;44020;50.890;15.796;2023-09-12T04:14:27;97416.02;;;14.18;92.82
58223;BME280;44020;50.890;15.796;2023-09-12T04:16:54;97412.36;;;14.13;92.76
58223;BME280;44020;50.890;15.796;2023-09-12T04:19:22;97411.52;;;14.10;92.94
58223;BME280;44020;50.890;15.796;2023-09-12T04:21:49;97412.50;;;14.09;93.09
58223;BME280;44020;50.890;15.796;2023-09-12T04:24:17;97410.98;;;14.08;93.27
58223;BME280;44020;50.890;15.796;2023-09-12T04:26:45;97411.88;;;14.06;93.22
58223;BME280;44020;50.890;15.796;2023-09-12T04:29:12;97411.73;;;14.06;93.18
58223;BME280;44020;50.890;15.796;2023-09-12T04:31:39;97413.02;;;14.03;93.09
58223;BME280;44020;50.890;15.796;2023-09-12T04:34:06;97410.36;;;13.99;92.96
58223;BME280;44020;50.890;15.796;2023-09-12T04:36:34;97414.21;;;13.96;92.92
58223;BME280;44020;50.890;15.796;2023-09-12T04:39:01;97411.24;;;13.93;92.99
58223;BME280;44020;50.890;15.796;2023-09-12T04:41:28;97408.08;;;13.90;92.86
58223;BME280;44020;50.890;15.796;2023-09-12T04:43:55;97407.59;;;13.88;92.94
58223;BME280;44020;50.890;15.796;2023-09-12T04:46:25;97411.42;;;13.87;93.05
58223;BME280;44020;50.890;15.796;2023-09-12T04:48:53;97408.80;;;13.86;93.19
58223;BME280;44020;50.890;15.796;2023-09-12T04:51:20;97408.11;;;13.86;93.37
58223;BME280;44020;50.890;15.796;2023-09-12T04:53:48;97407.85;;;13.87;93.44
58223;BME280;44020;50.890;15.796;2023-09-12T04:56:19;97406.22;;;13.89;93.68
58223;BME280;44020;50.890;15.796;2023-09-12T04:58:47;97407.41;;;13.92;93.73
58223;BME280;44020;50.890;15.796;2023-09-12T05:01:15;97408.83;;;13.92;93.94
58223;BME280;44020;50.890;15.796;2023-09-12T05:03:44;97413.11;;;13.94;94.09
58223;BME280;44020;50.890;15.796;2023-09-12T05:06:12;97408.74;;;13.97;94.28
58223;BME280;44020;50.890;15.796;2023-09-12T05:08:40;97411.89;;;14.00;94.57
58223;BME280;44020;50.890;15.796;2023-09-12T05:11:08;97412.04;;;14.04;94.88
58223;BME280;44020;50.890;15.796;2023-09-12T05:13:35;97412.62;;;14.08;94.98
58223;BME280;44020;50.890;15.796;2023-09-12T05:16:03;97416.08;;;14.11;95.10
58223;BME280;44020;50.890;15.796;2023-09-12T05:18:31;97418.10;;;14.12;95.18
58223;BME280;44020;50.890;15.796;2023-09-12T05:20:58;97421.80;;;14.15;95.50
58223;BME280;44020;50.890;15.796;2023-09-12T05:23:26;97422.38;;;14.19;95.61
58223;BME280;44020;50.890;15.796;2023-09-12T05:25:53;97418.80;;;14.21;95.67
58223;BME280;44020;50.890;15.796;2023-09-12T05:28:20;97419.60;;;14.24;95.93
58223;BME280;44020;50.890;15.796;2023-09-12T05:30:48;97416.13;;;14.27;96.15
58223;BME280;44020;50.890;15.796;2023-09-12T05:33:16;97410.35;;;14.31;96.30
58223;BME280;44020;50.890;15.796;2023-09-12T05:35:44;97409.09;;;14.35;96.57
58223;BME280;44020;50.890;15.796;2023-09-12T05:38:12;97408.34;;;14.40;96.95
58223;BME280;44020;50.890;15.796;2023-09-12T05:40:40;97407.08;;;14.44;97.13
58223;BME280;44020;50.890;15.796;2023-09-12T05:43:07;97408.45;;;14.48;97.34
58223;BME280;44020;50.890;15.796;2023-09-12T05:45:34;97409.88;;;14.52;97.56
58223;BME280;44020;50.890;15.796;2023-09-12T05:48:02;97410.44;;;14.56;97.83
58223;BME280;44020;50.890;15.796;2023-09-12T05:50:30;97408.73;;;14.62;98.10
58223;BME280;44020;50.890;15.796;2023-09-12T05:52:57;97408.75;;;14.67;98.32
58223;BME280;44020;50.890;15.796;2023-09-12T05:55:24;97408.55;;;14.73;98.53
58223;BME280;44020;50.890;15.796;2023-09-12T05:57:52;97411.23;;;14.80;98.87
58223;BME280;44020;50.890;15.796;2023-09-12T06:00:20;97409.77;;;14.89;99.08
58223;BME280;44020;50.890;15.796;2023-09-12T06:02:48;97408.23;;;14.96;99.18
58223;BME280;44020;50.890;15.796;2023-09-12T06:05:16;97408.05;;;15.03;99.48
58223;BME280;44020;50.890;15.796;2023-09-12T06:07:44;97405.16;;;15.11;99.59
58223;BME280;44020;50.890;15.796;2023-09-12T06:10:12;97406.48;;;15.18;99.83
58223;BME280;44020;50.890;15.796;2023-09-12T06:12:40;97403.73;;;15.25;99.98
58223;BME280;44020;50.890;15.796;2023-09-12T06:15:08;97401.77;;;15.30;100.00
58223;BME280;44020;50.890;15.796;2023-09-12T06:17:36;97401.63;;;15.37;100.00
58223;BME280;44020;50.890;15.796;2023-09-12T06:20:04;97404.08;;;15.46;100.00
58223;BME280;44020;50.890;15.796;2023-09-12T06:22:33;97400.60;;;15.52;100.00
58223;BME280;44020;50.890;15.796;2023-09-12T06:25:01;97401.98;;;15.60;100.00
58223;BME280;44020;50.890;15.796;2023-09-12T06:27:30;97397.30;;;15.68;100.00
58223;BME280;44020;50.890;15.796;2023-09-12T06:29:59;97399.16;;;15.75;100.00
58223;BME280;44020;50.890;15.796;2023-09-12T06:32:27;97397.95;;;15.82;100.00
58223;BME280;44020;50.890;15.796;2023-09-12T06:34:54;97400.88;;;15.89;100.00
58223;BME280;44020;50.890;15.796;2023-09-12T06:37:22;97397.97;;;15.95;100.00
58223;BME280;44020;50.890;15.796;2023-09-12T06:39:50;97397.55;;;16.01;100.00
58223;BME280;44020;50.890;15.796;2023-09-12T06:42:17;97397.14;;;16.09;100.00
58223;BME280;44020;50.890;15.796;2023-09-12T06:44:45;97399.46;;;16.16;100.00
58223;BME280;44020;50.890;15.796;2023-09-12T06:47:13;97395.01;;;16.23;100.00
58223;BME280;44020;50.890;15.796;2023-09-12T06:49:40;97396.44;;;16.31;100.00
58223;BME280;44020;50.890;15.796;2023-09-12T06:52:07;97395.54;;;16.38;100.00
58223;BME280;44020;50.890;15.796;2023-09-12T06:54:36;97392.88;;;16.45;100.00
58223;BME280;44020;50.890;15.796;2023-09-12T06:57:03;97394.98;;;16.53;100.00
58223;BME280;44020;50.890;15.796;2023-09-12T06:59:31;97392.00;;;16.59;100.00
58223;BME280;44020;50.890;15.796;2023-09-12T07:01:58;97393.14;;;16.68;100.00
58223;BME280;44020;50.890;15.796;2023-09-12T07:04:26;97392.30;;;16.74;100.00
58223;BME280;44020;50.890;15.796;2023-09-12T07:06:53;97391.21;;;16.81;100.00
58223;BME280;44020;50.890;15.796;2023-09-12T07:09:21;97386.29;;;16.88;100.00
58223;BME280;44020;50.890;15.796;2023-09-12T07:11:48;97387.36;;;16.95;100.00
58223;BME280;44020;50.890;15.796;2023-09-12T07:14:15;97389.50;;;17.02;100.00
58223;BME280;44020;50.890;15.796;2023-09-12T07:16:42;97388.45;;;17.11;100.00
58223;BME280;44020;50.890;15.796;2023-09-12T07:19:10;97388.33;;;17.19;100.00
58223;BME280;44020;50.890;15.796;2023-09-12T07:21:37;97388.14;;;17.27;100.00
58223;BME280;44020;50.890;15.796;2023-09-12T07:24:04;97394.56;;;17.37;100.00
58223;BME280;44020;50.890;15.796;2023-09-12T07:26:32;97392.50;;;17.46;100.00
58223;BME280;44020;50.890;15.796;2023-09-12T07:28:59;97393.19;;;17.56;100.00
58223;BME280;44020;50.890;15.796;2023-09-12T07:31:29;97396.69;;;17.65;100.00
58223;BME280;44020;50.890;15.796;2023-09-12T07:33:56;97392.64;;;17.75;100.00
58223;BME280;44020;50.890;15.796;2023-09-12T07:36:23;97392.27;;;17.83;100.00
58223;BME280;44020;50.890;15.796;2023-09-12T07:38:51;97393.13;;;17.92;100.00
58223;BME280;44020;50.890;15.796;2023-09-12T07:41:18;97393.09;;;18.01;100.00
58223;BME280;44020;50.890;15.796;2023-09-12T07:43:46;97392.45;;;18.11;100.00
58223;BME280;44020;50.890;15.796;2023-09-12T07:46:13;97393.66;;;18.21;100.00
58223;BME280;44020;50.890;15.796;2023-09-12T07:48:40;97390.84;;;18.33;100.00
58223;BME280;44020;50.890;15.796;2023-09-12T07:51:12;97393.73;;;18.43;100.00
58223;BME280;44020;50.890;15.796;2023-09-12T07:53:41;97393.41;;;18.54;100.00
58223;BME280;44020;50.890;15.796;2023-09-12T07:56:09;97390.48;;;18.63;100.00
58223;BME280;44020;50.890;15.796;2023-09-12T07:58:37;97391.31;;;18.72;100.00
58223;BME280;44020;50.890;15.796;2023-09-12T08:01:08;97395.98;;;18.82;100.00
58223;BME280;44020;50.890;15.796;2023-09-12T08:03:37;97393.98;;;18.93;100.00
58223;BME280;44020;50.890;15.796;2023-09-12T08:06:06;97394.73;;;19.05;100.00
58223;BME280;44020;50.890;15.796;2023-09-12T08:08:34;97396.27;;;19.12;100.00
58223;BME280;44020;50.890;15.796;2023-09-12T08:11:01;97394.90;;;19.18;100.00
58223;BME280;44020;50.890;15.796;2023-09-12T08:13:29;97396.13;;;19.22;100.00
58223;BME280;44020;50.890;15.796;2023-09-12T08:15:57;97394.77;;;19.27;100.00
58223;BME280;44020;50.890;15.796;2023-09-12T08:18:29;97388.38;;;19.31;100.00
58223;BME280;44020;50.890;15.796;2023-09-12T08:20:57;97387.29;;;19.35;100.00
58223;BME280;44020;50.890;15.796;2023-09-12T08:23:25;97391.61;;;19.38;100.00
58223;BME280;44020;50.890;15.796;2023-09-12T08:25:52;97395.62;;;19.41;100.00
58223;BME280;44020;50.890;15.796;2023-09-12T08:28:20;97394.98;;;19.43;100.00
58223;BME280;44020;50.890;15.796;2023-09-12T08:30:47;97393.80;;;19.49;100.00
58223;BME280;44020;50.890;15.796;2023-09-12T08:33:14;97395.18;;;19.59;100.00
58223;BME280;44020;50.890;15.796;2023-09-12T08:35:42;97391.54;;;19.69;100.00
58223;BME280;44020;50.890;15.796;2023-09-12T08:38:10;97389.28;;;19.78;100.00
58223;BME280;44020;50.890;15.796;2023-09-12T08:40:38;97390.61;;;19.87;100.00
58223;BME280;44020;50.890;15.796;2023-09-12T08:43:06;97391.55;;;19.99;100.00
58223;BME280;44020;50.890;15.796;2023-09-12T08:45:34;97392.03;;;20.12;100.00
58223;BME280;44020;50.890;15.796;2023-09-12T08:48:03;97387.80;;;20.25;100.00
58223;BME280;44020;50.890;15.796;2023-09-12T08:50:32;97385.94;;;20.41;100.00
58223;BME280;44020;50.890;15.796;2023-09-12T08:53:01;97382.89;;;20.54;100.00
58223;BME280;44020;50.890;15.796;2023-09-12T08:55:29;97386.03;;;20.68;100.00
58223;BME280;44020;50.890;15.796;2023-09-12T08:57:59;97384.80;;;20.80;100.00
58223;BME280;44020;50.890;15.796;2023-09-12T09:00:29;97384.50;;;20.93;100.00
58223;BME280;44020;50.890;15.796;2023-09-12T09:02:58;97383.18;;;21.06;100.00
58223;BME280;44020;50.890;15.796;2023-09-12T09:05:27;97378.63;;;21.18;100.00
58223;BME280;44020;50.890;15.796;2023-09-12T09:07:55;97382.14;;;21.33;100.00
58223;BME280;44020;50.890;15.796;2023-09-12T09:10:23;97380.46;;;21.47;100.00
58223;BME280;44020;50.890;15.796;2023-09-12T09:12:50;97378.77;;;21.61;100.00
58223;BME280;44020;50.890;15.796;2023-09-12T09:15:24;97377.02;;;21.73;100.00
58223;BME280;44020;50.890;15.796;2023-09-12T09:17:54;97373.77;;;21.83;100.00
58223;BME280;44020;50.890;15.796;2023-09-12T09:20:26;97370.77;;;21.96;100.00
58223;BME280;44020;50.890;15.796;2023-09-12T09:22:58;97367.91;;;22.10;100.00
58223;BME280;44020;50.890;15.796;2023-09-12T09:25:27;97368.94;;;22.23;100.00
58223;BME280;44020;50.890;15.796;2023-09-12T09:27:54;97370.04;;;22.32;100.00
58223;BME280;44020;50.890;15.796;2023-09-12T09:30:42;97364.48;;;22.41;100.00
58223;BME280;44020;50.890;15.796;2023-09-12T09:33:15;97362.84;;;22.53;100.00
58223;BME280;44020;50.890;15.796;2023-09-12T09:35:45;97361.73;;;22.69;100.00
58223;BME280;44020;50.890;15.796;2023-09-12T09:38:12;97361.34;;;22.79;100.00
58223;BME280;44020;50.890;15.796;2023-09-12T09:40:43;97363.23;;;22.90;100.00
58223;BME280;44020;50.890;15.796;2023-09-12T09:43:12;97362.32;;;23.02;100.00
58223;BME280;44020;50.890;15.796;2023-09-12T09:45:45;97362.48;;;23.14;100.00
58223;BME280;44020;50.890;15.796;2023-09-12T09:48:24;97358.94;;;23.26;100.00
58223;BME280;44020;50.890;15.796;2023-09-12T09:51:03;97358.45;;;23.38;100.00
58223;BME280;44020;50.890;15.796;2023-09-12T09:53:30;97357.27;;;23.50;100.00
58223;BME280;44020;50.890;15.796;2023-09-12T09:56:12;97354.36;;;23.58;99.40
58223;BME280;44020;50.890;15.796;2023-09-12T09:58:47;97355.49;;;23.66;98.08
58223;BME280;44020;50.890;15.796;2023-09-12T10:01:23;97351.83;;;23.79;97.12
58223;BME280;44020;50.890;15.796;2023-09-12T10:03:52;97351.20;;;23.92;96.47
58223;BME280;44020;50.890;15.796;2023-09-12T10:06:20;97349.59;;;24.05;94.99
58223;BME280;44020;50.890;15.796;2023-09-12T10:08:52;97349.95;;;24.10;93.78
58223;BME280;44020;50.890;15.796;2023-09-12T10:11:24;97349.17;;;24.14;93.23
58223;BME280;44020;50.890;15.796;2023-09-12T10:13:56;97345.48;;;24.21;92.67
58223;BME280;44020;50.890;15.796;2023-09-12T10:16:30;97342.00;;;24.32;91.68
58223;BME280;44020;50.890;15.796;2023-09-12T10:21:49;97335.91;;;24.44;88.95
58223;BME280;44020;50.890;15.796;2023-09-12T10:24:17;97336.34;;;24.52;88.32
58223;BME280;44020;50.890;15.796;2023-09-12T10:26:49;97338.31;;;24.65;86.30
58223;BME280;44020;50.890;15.796;2023-09-12T10:29:17;97333.00;;;24.77;82.70
58223;BME280;44020;50.890;15.796;2023-09-12T10:31:45;97330.49;;;24.84;82.12
58223;BME280;44020;50.890;15.796;2023-09-12T10:34:14;97330.21;;;24.90;81.14
58223;BME280;44020;50.890;15.796;2023-09-12T10:36:42;97327.70;;;24.93;79.28
58223;BME280;44020;50.890;15.796;2023-09-12T10:39:12;97329.09;;;24.95;78.48
58223;BME280;44020;50.890;15.796;2023-09-12T10:41:41;97330.30;;;24.93;79.41
58223;BME280;44020;50.890;15.796;2023-09-12T10:44:11;97327.31;;;24.93;79.69
58223;BME280;44020;50.890;15.796;2023-09-12T10:46:40;97331.64;;;25.00;78.10
58223;BME280;44020;50.890;15.796;2023-09-12T10:49:09;97329.92;;;25.11;76.75
58223;BME280;44020;50.890;15.796;2023-09-12T10:51:45;97330.84;;;25.20;76.94
58223;BME280;44020;50.890;15.796;2023-09-12T10:54:15;97329.67;;;25.25;75.98
58223;BME280;44020;50.890;15.796;2023-09-12T10:56:42;97327.09;;;25.36;75.97
58223;BME280;44020;50.890;15.796;2023-09-12T10:59:12;97330.27;;;25.47;75.33
58223;BME280;44020;50.890;15.796;2023-09-12T11:01:44;97332.70;;;25.49;74.71
58223;BME280;44020;50.890;15.796;2023-09-12T11:06:50;97329.89;;;25.61;73.85
58223;BME280;44020;50.890;15.796;2023-09-12T11:09:22;97330.33;;;25.68;73.74
58223;BME280;44020;50.890;15.796;2023-09-12T11:11:56;97327.36;;;25.79;72.88
58223;BME280;44020;50.890;15.796;2023-09-12T11:14:24;97329.16;;;25.88;72.38
58223;BME280;44020;50.890;15.796;2023-09-12T11:19:45;97329.91;;;26.07;69.84
58223;BME280;44020;50.890;15.796;2023-09-12T11:24:49;97326.50;;;26.27;70.19
58223;BME280;44020;50.890;15.796;2023-09-12T11:27:16;97328.77;;;26.36;68.97
58223;BME280;44020;50.890;15.796;2023-09-12T11:29:45;97327.70;;;26.48;67.84
58223;BME280;44020;50.890;15.796;2023-09-12T11:32:30;97327.58;;;26.61;67.75
58223;BME280;44020;50.890;15.796;2023-09-12T11:34:59;97323.65;;;26.71;68.11
58223;BME280;44020;50.890;15.796;2023-09-12T11:37:32;97326.15;;;26.85;67.60
58223;BME280;44020;50.890;15.796;2023-09-12T11:40:00;97329.73;;;26.96;65.15
58223;BME280;44020;50.890;15.796;2023-09-12T11:42:28;97331.84;;;27.06;64.41
58223;BME280;44020;50.890;15.796;2023-09-12T11:44:56;97333.86;;;27.13;64.14
58223;BME280;44020;50.890;15.796;2023-09-12T11:47:25;97335.60;;;27.24;63.24
58223;BME280;44020;50.890;15.796;2023-09-12T11:49:52;97333.79;;;27.35;63.69
58223;BME280;44020;50.890;15.796;2023-09-12T11:52:20;97334.52;;;27.49;63.70
58223;BME280;44020;50.890;15.796;2023-09-12T11:54:48;97335.23;;;27.58;62.86
58223;BME280;44020;50.890;15.796;2023-09-12T11:57:16;97335.19;;;27.60;62.26
58223;BME280;44020;50.890;15.796;2023-09-12T11:59:53;97337.31;;;27.60;61.46
58223;BME280;44020;50.890;15.796;2023-09-12T12:02:25;97337.66;;;27.54;60.90
58223;BME280;44020;50.890;15.796;2023-09-12T12:04:52;97339.38;;;27.41;58.34
58223;BME280;44020;50.890;15.796;2023-09-12T12:07:21;97340.44;;;27.30;59.29
58223;BME280;44020;50.890;15.796;2023-09-12T12:09:50;97340.95;;;27.18;59.54
58223;BME280;44020;50.890;15.796;2023-09-12T12:12:17;97339.04;;;27.08;60.10
58223;BME280;44020;50.890;15.796;2023-09-12T12:14:45;97336.77;;;26.99;61.06
58223;BME280;44020;50.890;15.796;2023-09-12T12:17:13;97341.98;;;26.90;61.88
58223;BME280;44020;50.890;15.796;2023-09-12T12:19:45;97340.60;;;26.83;62.74
58223;BME280;44020;50.890;15.796;2023-09-12T12:22:13;97338.55;;;26.82;63.78
58223;BME280;44020;50.890;15.796;2023-09-12T12:24:45;97338.41;;;26.91;64.62
58223;BME280;44020;50.890;15.796;2023-09-12T12:27:16;97336.80;;;27.02;64.30
58223;BME280;44020;50.890;15.796;2023-09-12T12:29:44;97339.33;;;27.17;64.07
58223;BME280;44020;50.890;15.796;2023-09-12T12:32:31;97334.60;;;27.33;64.23
58223;BME280;44020;50.890;15.796;2023-09-12T12:34:58;97334.48;;;27.48;63.99
58223;BME280;44020;50.890;15.796;2023-09-12T12:37:29;97332.54;;;27.56;61.25
58223;BME280;44020;50.890;15.796;2023-09-12T12:39:58;97333.20;;;27.63;60.33
58223;BME280;44020;50.890;15.796;2023-09-12T12:42:33;97330.99;;;27.65;61.00
58223;BME280;44020;50.890;15.796;2023-09-12T12:45:01;97325.60;;;27.60;60.60
58223;BME280;44020;50.890;15.796;2023-09-12T12:47:29;97324.03;;;27.53;60.38
58223;BME280;44020;50.890;15.796;2023-09-12T12:49:59;97321.11;;;27.48;60.97
58223;BME280;44020;50.890;15.796;2023-09-12T12:52:27;97322.41;;;27.46;61.22
58223;BME280;44020;50.890;15.796;2023-09-12T12:55:06;97322.48;;;27.52;61.65
58223;BME280;44020;50.890;15.796;2023-09-12T12:57:38;97315.96;;;27.63;62.40
58223;BME280;44020;50.890;15.796;2023-09-12T13:00:11;97314.77;;;27.77;61.34
58223;BME280;44020;50.890;15.796;2023-09-12T13:02:38;97310.81;;;27.90;61.66
58223;BME280;44020;50.890;15.796;2023-09-12T13:05:19;97310.55;;;27.99;61.63
58223;BME280;44020;50.890;15.796;2023-09-12T13:07:46;97306.64;;;28.06;59.90
58223;BME280;44020;50.890;15.796;2023-09-12T13:10:13;97306.88;;;28.16;59.92